createdAt,value
2022-09-16T00:01:37.034Z,16.30
2022-09-16T00:04:03.556Z,16.17
2022-09-16T00:06:30.325Z,16.13
2022-09-16T00:08:58.615Z,16.33
2022-09-16T00:11:25.179Z,15.47
2022-09-16T00:13:51.826Z,15.89
2022-09-16T00:16:24.604Z,15.78
2022-09-16T00:18:55.718Z,15.99
2022-09-16T00:21:23.078Z,15.75
2022-09-16T00:23:49.596Z,16.19
2022-09-16T00:26:16.188Z,15.56
2022-09-16T00:28:43.263Z,15.82
2022-09-16T00:31:09.795Z,15.73
2022-09-16T00:33:36.427Z,15.71
2022-09-16T00:36:11.338Z,15.68
2022-09-16T00:38:38.580Z,15.79
2022-09-16T00:41:06.164Z,15.68
2022-09-16T00:43:53.987Z,15.85
2022-09-16T00:46:27.725Z,15.35
2022-09-16T00:48:54.527Z,15.35
2022-09-16T00:51:22.094Z,15.74
2022-09-16T00:53:56.975Z,15.41
2022-09-16T00:56:26.310Z,16.32
2022-09-16T00:59:09.943Z,15.77
2022-09-16T01:01:37.156Z,15.61
2022-09-16T01:04:14.086Z,16.25
2022-09-16T01:06:40.645Z,15.76
2022-09-16T01:09:07.317Z,16.11
2022-09-16T01:11:34.064Z,15.66
2022-09-16T01:14:21.000Z,16.02
2022-09-16T01:16:58.214Z,16.09
2022-09-16T01:19:55.597Z,15.71
2022-09-16T01:22:29.607Z,15.70
2022-09-16T01:25:11.431Z,15.61
2022-09-16T01:27:51.766Z,15.55
2022-09-16T01:30:18.487Z,15.88
2022-09-16T01:32:58.763Z,16.15
2022-09-16T01:35:36.108Z,15.65
2022-09-16T01:38:20.872Z,15.46
2022-09-16T01:41:07.261Z,15.14
2022-09-16T01:43:44.838Z,15.93
2022-09-16T01:46:23.094Z,15.07
2022-09-16T01:48:58.665Z,15.52
2022-09-16T01:51:31.802Z,15.45
2022-09-16T01:54:12.621Z,15.39
2022-09-16T01:57:03.923Z,15.22
2022-09-16T02:00:06.635Z,15.42
2022-09-16T02:02:39.237Z,15.88
2022-09-16T02:05:09.820Z,15.67
2022-09-16T02:07:47.703Z,15.55
2022-09-16T02:10:20.839Z,16.22
2022-09-16T02:12:49.882Z,16.04
2022-09-16T02:15:22.095Z,16.21
2022-09-16T02:17:57.649Z,16.33
2022-09-16T02:20:27.668Z,16.90
2022-09-16T02:22:59.470Z,16.35
2022-09-16T02:25:26.746Z,16.77
2022-09-16T02:27:54.080Z,15.79
2022-09-16T02:30:22.049Z,16.32
2022-09-16T02:33:03.742Z,16.13
2022-09-16T02:35:31.443Z,15.88
2022-09-16T02:38:04.887Z,16.19
2022-09-16T02:40:37.537Z,15.65
2022-09-16T02:43:04.261Z,15.71
2022-09-16T02:45:47.250Z,15.99
2022-09-16T02:48:23.063Z,16.48
2022-09-16T02:50:59.834Z,16.12
2022-09-16T02:53:52.930Z,16.39
2022-09-16T02:56:27.633Z,16.03
2022-09-16T02:58:54.113Z,16.16
2022-09-16T03:01:22.041Z,15.91
2022-09-16T03:03:48.944Z,15.74
2022-09-16T03:06:17.619Z,16.23
2022-09-16T03:08:45.222Z,15.51
2022-09-16T03:11:32.071Z,15.30
2022-09-16T03:14:01.506Z,15.21
2022-09-16T03:16:46.139Z,15.58
2022-09-16T03:19:24.948Z,15.47
2022-09-16T03:22:15.266Z,15.65
2022-09-16T03:25:00.786Z,15.49
2022-09-16T03:27:34.538Z,15.72
2022-09-16T03:30:09.319Z,15.13
2022-09-16T03:32:58.392Z,15.62
2022-09-16T03:35:32.179Z,15.34
2022-09-16T03:37:59.921Z,14.87
2022-09-16T03:40:29.838Z,14.84
2022-09-16T03:42:57.874Z,14.65
2022-09-16T03:45:24.513Z,14.66
2022-09-16T03:47:52.460Z,15.14
2022-09-16T03:50:20.373Z,14.96
2022-09-16T03:52:47.117Z,15.56
2022-09-16T03:55:13.813Z,15.32
2022-09-16T03:57:40.826Z,15.45
2022-09-16T04:00:08.621Z,15.75
2022-09-16T04:02:35.942Z,14.97
2022-09-16T04:05:03.638Z,14.92
2022-09-16T04:07:33.493Z,15.52
2022-09-16T04:10:00.205Z,15.48
2022-09-16T04:12:27.062Z,15.27
2022-09-16T04:14:53.557Z,15.48
2022-09-16T04:17:20.040Z,15.43
2022-09-16T04:19:46.499Z,15.70
2022-09-16T04:22:12.961Z,14.93
2022-09-16T04:24:39.421Z,15.15
2022-09-16T04:27:05.933Z,14.50
2022-09-16T04:29:32.835Z,14.93
2022-09-16T04:31:59.335Z,15.15
2022-09-16T04:34:25.966Z,14.84
2022-09-16T04:36:52.407Z,15.19
2022-09-16T04:39:19.544Z,14.88
2022-09-16T04:41:46.050Z,15.42
2022-09-16T04:44:12.770Z,15.51
2022-09-16T04:46:39.308Z,15.07
2022-09-16T04:49:06.573Z,14.15
2022-09-16T04:51:33.244Z,15.11
2022-09-16T04:54:00.089Z,15.07
2022-09-16T04:56:28.980Z,15.60
2022-09-16T04:58:58.367Z,15.01
2022-09-16T05:01:27.353Z,15.24
2022-09-16T05:03:56.976Z,15.40
2022-09-16T05:06:30.018Z,15.43
2022-09-16T05:08:57.591Z,14.81
2022-09-16T05:11:27.366Z,15.10
2022-09-16T05:13:54.626Z,14.90
2022-09-16T05:16:22.888Z,15.03
2022-09-16T05:18:51.068Z,14.65
2022-09-16T05:21:19.740Z,14.34
2022-09-16T05:23:47.381Z,14.44
2022-09-16T05:26:17.098Z,14.85
2022-09-16T05:28:43.709Z,14.66
2022-09-16T05:31:15.016Z,14.94
2022-09-16T05:33:43.700Z,14.75
2022-09-16T05:36:15.773Z,15.09
2022-09-16T05:38:54.313Z,15.15
2022-09-16T05:41:29.253Z,15.21
2022-09-16T05:43:59.367Z,15.27
2022-09-16T05:46:26.376Z,15.03
2022-09-16T05:48:53.162Z,14.73
2022-09-16T05:51:21.872Z,14.50
2022-09-16T05:53:49.858Z,14.92
2022-09-16T05:56:25.788Z,15.07
2022-09-16T05:58:57.933Z,15.22
2022-09-16T06:01:27.236Z,15.09
2022-09-16T06:03:55.071Z,14.15
2022-09-16T06:06:44.896Z,14.36
2022-09-16T06:09:17.586Z,14.10
2022-09-16T06:11:49.035Z,14.00
2022-09-16T06:14:16.589Z,13.49
2022-09-16T06:16:43.750Z,13.71
2022-09-16T06:19:14.463Z,13.32
2022-09-16T06:21:41.966Z,13.03
2022-09-16T06:24:09.022Z,13.35
2022-09-16T06:26:37.994Z,13.01
2022-09-16T06:29:05.707Z,12.54
2022-09-16T06:31:32.717Z,12.73
2022-09-16T06:33:59.267Z,12.47
2022-09-16T06:36:29.966Z,12.99
2022-09-16T06:38:56.751Z,12.98
2022-09-16T06:41:24.107Z,12.88
2022-09-16T06:43:52.024Z,13.10
2022-09-16T06:46:24.670Z,13.41
2022-09-16T06:48:53.940Z,13.38
2022-09-16T06:51:25.703Z,13.71
2022-09-16T06:53:53.398Z,14.00
2022-09-16T06:56:21.110Z,13.90
2022-09-16T06:58:49.477Z,14.05
2022-09-16T07:01:18.344Z,14.39
2022-09-16T07:03:47.551Z,14.39
2022-09-16T07:06:15.261Z,14.91
2022-09-16T07:08:42.360Z,15.11
2022-09-16T07:11:14.175Z,15.29
2022-09-16T07:13:41.210Z,15.22
2022-09-16T07:16:13.313Z,15.50
2022-09-16T07:18:40.929Z,15.64
2022-09-16T07:21:10.421Z,15.91
2022-09-16T07:23:37.952Z,16.05
2022-09-16T07:26:08.849Z,16.49
2022-09-16T07:28:36.429Z,16.22
2022-09-16T07:31:04.999Z,15.78
2022-09-16T07:33:33.334Z,15.81
2022-09-16T07:36:00.796Z,16.01
2022-09-16T07:38:29.078Z,16.13
2022-09-16T07:40:55.884Z,17.00
2022-09-16T07:43:22.429Z,16.85
2022-09-16T07:45:56.439Z,16.80
2022-09-16T07:48:23.029Z,15.33
2022-09-16T07:51:01.616Z,15.46
2022-09-16T07:53:29.738Z,15.43
2022-09-16T07:55:57.301Z,15.42
2022-09-16T07:58:23.820Z,15.80
2022-09-16T08:00:50.521Z,16.62
2022-09-16T08:03:17.832Z,15.39
2022-09-16T08:05:44.873Z,16.28
2022-09-16T08:08:11.412Z,15.71
2022-09-16T08:10:38.216Z,16.30
2022-09-16T08:13:06.059Z,16.86
2022-09-16T08:15:33.214Z,16.81
2022-09-16T08:17:59.875Z,16.95
2022-09-16T08:20:27.125Z,16.60
2022-09-16T08:22:57.420Z,17.39
2022-09-16T08:25:25.113Z,16.75
2022-09-16T08:27:54.158Z,16.45
2022-09-16T08:30:23.329Z,17.50
2022-09-16T08:32:57.081Z,18.21
2022-09-16T08:35:23.929Z,18.22
2022-09-16T08:37:50.509Z,18.22
2022-09-16T08:42:59.281Z,17.58
2022-09-16T08:45:56.793Z,17.31
2022-09-16T08:48:52.606Z,17.40
2022-09-16T08:51:20.228Z,16.54
2022-09-16T08:54:02.490Z,17.84
2022-09-16T08:56:31.806Z,18.05
2022-09-16T08:59:01.170Z,18.32
2022-09-16T09:01:50.602Z,18.58
2022-09-16T09:04:17.483Z,19.62
2022-09-16T09:06:44.034Z,20.29
2022-09-16T09:09:35.547Z,20.89
2022-09-16T09:12:08.991Z,21.48
2022-09-16T09:14:43.276Z,20.23
2022-09-16T09:17:26.948Z,21.65
2022-09-16T09:20:10.538Z,22.06
2022-09-16T09:23:01.931Z,20.89
2022-09-16T09:25:40.070Z,20.30
2022-09-16T09:28:17.312Z,20.67
2022-09-16T09:30:53.651Z,21.29
2022-09-16T09:33:46.890Z,20.07
2022-09-16T09:36:41.935Z,23.72
2022-09-16T09:39:11.445Z,25.58
2022-09-16T09:41:46.651Z,28.17
2022-09-16T09:44:40.814Z,31.55
2022-09-16T09:47:27.685Z,31.25
2022-09-16T09:49:57.752Z,27.51
2022-09-16T09:52:44.211Z,28.55
2022-09-16T09:55:19.329Z,29.83
2022-09-16T09:58:01.127Z,25.09
2022-09-16T10:00:28.097Z,24.07
2022-09-16T10:03:03.988Z,27.21
2022-09-16T10:05:31.201Z,23.21
2022-09-16T10:08:00.380Z,23.35
2022-09-16T10:10:31.386Z,21.90
2022-09-16T10:13:07.676Z,20.57
2022-09-16T10:15:35.216Z,20.37
2022-09-16T10:18:03.206Z,19.64
2022-09-16T10:20:38.158Z,19.47
2022-09-16T10:23:16.536Z,19.81
2022-09-16T10:25:43.784Z,24.21
2022-09-16T10:28:23.355Z,30.27
2022-09-16T10:30:52.699Z,36.37
2022-09-16T10:33:29.273Z,37.06
2022-09-16T10:36:10.275Z,40.35
2022-09-16T10:38:42.197Z,40.13
2022-09-16T10:41:16.465Z,35.25
2022-09-16T10:44:06.913Z,36.67
2022-09-16T10:46:33.960Z,31.65
2022-09-16T10:49:02.813Z,29.88
2022-09-16T10:51:31.287Z,26.37
2022-09-16T10:54:00.714Z,25.03
2022-09-16T10:56:29.557Z,19.77
2022-09-16T10:59:09.606Z,17.70
2022-09-16T11:02:04.545Z,16.02
2022-09-16T11:04:40.369Z,14.87
2022-09-16T11:07:31.760Z,14.09
2022-09-16T11:10:09.699Z,13.89
2022-09-16T11:12:55.270Z,13.59
2022-09-16T11:15:41.111Z,13.94
2022-09-16T11:18:19.953Z,14.14
2022-09-16T11:20:53.007Z,14.59
2022-09-16T11:23:47.442Z,15.33
2022-09-16T11:26:26.050Z,16.21
2022-09-16T11:29:03.617Z,18.54
2022-09-16T11:31:39.502Z,20.85
2022-09-16T11:34:25.211Z,21.97
2022-09-16T11:37:14.527Z,24.23
2022-09-16T11:39:59.382Z,24.24
2022-09-16T11:42:39.112Z,22.18
2022-09-16T11:45:35.327Z,21.67
2022-09-16T11:48:26.766Z,19.99
2022-09-16T11:51:05.563Z,18.62
2022-09-16T11:53:45.858Z,18.20
2022-09-16T11:56:15.300Z,16.65
2022-09-16T11:58:54.541Z,15.88
2022-09-16T12:01:42.949Z,15.59
2022-09-16T12:04:16.718Z,15.47
2022-09-16T12:06:55.346Z,15.40
2022-09-16T12:09:35.079Z,15.24
2022-09-16T12:12:14.917Z,15.10
2022-09-16T12:14:45.618Z,15.42
2022-09-16T12:17:22.446Z,15.31
2022-09-16T12:20:10.953Z,15.17
2022-09-16T12:22:45.766Z,15.25
2022-09-16T12:25:28.314Z,15.91
2022-09-16T12:28:03.646Z,15.68
2022-09-16T12:30:36.366Z,15.05
2022-09-16T12:33:16.937Z,15.14
2022-09-16T12:36:09.474Z,14.76
2022-09-16T12:38:36.108Z,14.96
2022-09-16T12:41:27.382Z,14.75
2022-09-16T12:44:33.855Z,15.89
2022-09-16T12:47:21.229Z,15.61
2022-09-16T12:49:56.792Z,16.16
2022-09-16T12:52:29.533Z,16.35
2022-09-16T12:55:26.803Z,16.66
2022-09-16T12:58:14.681Z,15.58
2022-09-16T13:00:53.486Z,15.76
2022-09-16T13:03:27.544Z,15.82
2022-09-16T13:05:56.968Z,15.62
2022-09-16T13:08:33.895Z,15.50
2022-09-16T13:11:41.197Z,14.94
2022-09-16T13:13:54.306Z,15.68
2022-09-16T13:16:30.627Z,15.43
2022-09-16T13:19:24.656Z,16.62
2022-09-16T13:21:56.096Z,16.06
2022-09-16T13:24:39.033Z,16.78
2022-09-16T13:27:36.169Z,17.52
2022-09-16T13:30:08.602Z,17.72
2022-09-16T13:32:43.498Z,16.66
2022-09-16T13:35:19.078Z,16.97
2022-09-16T13:37:50.129Z,16.64
2022-09-16T13:40:25.726Z,16.49
2022-09-16T13:43:09.321Z,17.21
2022-09-16T13:45:45.621Z,17.30
2022-09-16T13:48:24.634Z,17.30
2022-09-16T13:50:57.883Z,16.98
2022-09-16T13:53:29.504Z,16.98
2022-09-16T13:56:01.151Z,16.26
2022-09-16T13:58:36.400Z,17.11
2022-09-16T14:01:27.912Z,16.94
2022-09-16T14:04:13.169Z,16.87
2022-09-16T14:06:49.171Z,16.92
2022-09-16T14:09:45.503Z,16.42
2022-09-16T14:12:48.592Z,17.05
2022-09-16T14:15:16.243Z,16.42
2022-09-16T14:17:50.966Z,16.82
2022-09-16T14:20:21.756Z,16.81
2022-09-16T14:22:48.532Z,16.82
2022-09-16T14:25:34.755Z,16.82
2022-09-16T14:28:28.092Z,16.88
2022-09-16T14:30:56.018Z,16.62
2022-09-16T14:33:26.922Z,16.50
2022-09-16T14:35:55.610Z,17.00
2022-09-16T14:38:44.949Z,17.38
2022-09-16T14:41:28.862Z,16.55
2022-09-16T14:44:02.549Z,17.30
2022-09-16T14:46:29.146Z,17.05
2022-09-16T14:48:56.291Z,17.24
2022-09-16T14:51:25.196Z,16.78
2022-09-16T14:54:11.786Z,17.07
2022-09-16T14:56:40.039Z,17.31
2022-09-16T14:59:10.550Z,16.64
2022-09-16T15:01:37.211Z,16.56
2022-09-16T15:04:08.724Z,17.07
2022-09-16T15:06:43.548Z,17.35
2022-09-16T15:09:23.677Z,16.84
2022-09-16T15:11:57.988Z,17.06
2022-09-16T15:14:24.707Z,16.81
2022-09-16T15:16:56.065Z,17.40
2022-09-16T15:19:28.130Z,17.49
2022-09-16T15:21:54.882Z,17.07
2022-09-16T15:24:24.877Z,17.21
2022-09-16T15:26:54.089Z,16.94
2022-09-16T15:29:20.915Z,16.96
2022-09-16T15:31:47.855Z,16.73
2022-09-16T15:34:23.290Z,16.35
2022-09-16T15:36:54.753Z,16.35
2022-09-16T15:39:24.304Z,15.89
2022-09-16T15:42:04.918Z,16.18
2022-09-16T15:44:36.963Z,16.16
2022-09-16T15:47:04.388Z,16.46
2022-09-16T15:49:33.769Z,16.30
2022-09-16T15:52:08.685Z,16.40
2022-09-16T15:54:45.066Z,15.56
2022-09-16T15:57:23.062Z,16.08
2022-09-16T16:00:10.788Z,15.57
2022-09-16T16:02:40.257Z,15.60
2022-09-16T16:05:11.871Z,15.81
2022-09-16T16:07:50.453Z,15.92
2022-09-16T16:10:20.768Z,15.97
2022-09-16T16:12:51.922Z,15.36
2022-09-16T16:15:25.222Z,15.36
2022-09-16T16:17:53.565Z,15.08
2022-09-16T16:20:21.805Z,15.55
2022-09-16T16:22:49.059Z,15.41
2022-09-16T16:25:15.832Z,15.05
2022-09-16T16:27:45.771Z,14.81
2022-09-16T16:30:12.589Z,15.21
2022-09-16T16:32:41.984Z,15.35
2022-09-16T16:35:08.866Z,15.02
2022-09-16T16:37:50.679Z,15.17
2022-09-16T16:40:17.400Z,15.22
2022-09-16T16:42:44.322Z,15.11
2022-09-16T16:45:14.543Z,14.99
2022-09-16T16:47:42.024Z,15.19
2022-09-16T16:50:09.069Z,15.38
2022-09-16T16:52:35.648Z,15.59
2022-09-16T16:55:02.116Z,15.24
2022-09-16T16:57:28.646Z,14.74
2022-09-16T16:59:55.142Z,14.50
2022-09-16T17:02:21.782Z,14.56
2022-09-16T17:04:48.297Z,14.85
2022-09-16T17:07:25.609Z,14.51
2022-09-16T17:09:53.788Z,14.19
2022-09-16T17:12:20.632Z,14.23
2022-09-16T17:14:47.246Z,14.20
2022-09-16T17:17:13.743Z,14.36
2022-09-16T17:19:40.239Z,14.20
2022-09-16T17:22:06.831Z,14.36
2022-09-16T17:24:34.633Z,14.40
2022-09-16T17:27:01.502Z,14.19
2022-09-16T17:29:28.007Z,14.40
2022-09-16T17:31:56.889Z,14.68
2022-09-16T17:34:23.762Z,14.01
2022-09-16T17:36:50.240Z,13.77
2022-09-16T17:39:19.078Z,13.95
2022-09-16T17:41:48.563Z,13.54
2022-09-16T17:44:15.818Z,13.69
2022-09-16T17:46:43.088Z,13.64
2022-09-16T17:49:23.750Z,13.52
2022-09-16T17:51:51.439Z,13.47
2022-09-16T17:54:18.248Z,13.25
2022-09-16T17:56:45.301Z,13.56
2022-09-16T17:59:13.288Z,13.99
2022-09-16T18:01:40.184Z,13.51
2022-09-16T18:04:07.446Z,13.79
2022-09-16T18:06:45.466Z,13.88
2022-09-16T18:09:13.081Z,13.92
2022-09-16T18:11:39.967Z,13.89
2022-09-16T18:14:10.030Z,13.54
2022-09-16T18:16:36.614Z,13.33
2022-09-16T18:19:04.135Z,13.32
2022-09-16T18:21:31.421Z,13.41
2022-09-16T18:24:00.327Z,13.41
2022-09-16T18:26:27.352Z,13.46
2022-09-16T18:29:11.533Z,13.28
2022-09-16T18:31:46.849Z,13.53
2022-09-16T18:34:13.851Z,12.95
2022-09-16T18:36:40.784Z,12.92
2022-09-16T18:39:11.509Z,13.08
2022-09-16T18:41:40.464Z,13.09
2022-09-16T18:44:12.793Z,13.39
2022-09-16T18:46:39.582Z,13.38
2022-09-16T18:49:06.660Z,13.47
2022-09-16T18:51:38.450Z,13.28
2022-09-16T18:54:11.439Z,13.34
2022-09-16T18:56:39.029Z,13.86
2022-09-16T18:59:23.950Z,13.46
2022-09-16T19:01:56.874Z,13.42
2022-09-16T19:04:27.173Z,13.42
2022-09-16T19:06:59.199Z,13.31
2022-09-16T19:09:25.835Z,13.02
2022-09-16T19:11:53.957Z,13.28
2022-09-16T19:14:24.151Z,13.54
2022-09-16T19:16:50.806Z,13.63
2022-09-16T19:19:17.308Z,13.36
2022-09-16T19:21:44.315Z,13.32
2022-09-16T19:24:14.071Z,13.46
2022-09-16T19:26:42.129Z,13.44
2022-09-16T19:29:08.989Z,13.55
2022-09-16T19:31:38.054Z,13.33
2022-09-16T19:34:05.406Z,13.50
2022-09-16T19:36:32.710Z,13.62
2022-09-16T19:38:59.995Z,13.41
2022-09-16T19:41:29.802Z,13.65
2022-09-16T19:43:58.279Z,13.54
2022-09-16T19:46:25.920Z,13.73
2022-09-16T19:48:52.732Z,13.89
2022-09-16T19:51:22.614Z,14.06
2022-09-16T19:53:49.640Z,13.80
2022-09-16T19:56:21.221Z,13.81
2022-09-16T19:58:48.492Z,13.55
2022-09-16T20:01:18.064Z,13.88
2022-09-16T20:03:45.071Z,13.80
2022-09-16T20:06:14.498Z,13.47
2022-09-16T20:08:42.427Z,13.76
2022-09-16T20:11:14.406Z,13.59
2022-09-16T20:13:41.006Z,13.38
2022-09-16T20:16:09.379Z,13.45
2022-09-16T20:18:36.544Z,13.29
2022-09-16T20:21:08.268Z,12.91
2022-09-16T20:23:35.162Z,13.31
2022-09-16T20:26:04.023Z,13.28
2022-09-16T20:28:34.725Z,13.61
2022-09-16T20:31:01.863Z,13.66
2022-09-16T20:33:33.102Z,13.68
2022-09-16T20:36:08.256Z,13.43
2022-09-16T20:38:34.953Z,12.99
2022-09-16T20:41:09.229Z,13.30
2022-09-16T20:43:36.342Z,13.39
2022-09-16T20:46:05.021Z,13.94
2022-09-16T20:48:31.775Z,13.30
2022-09-16T20:51:06.666Z,13.42
2022-09-16T20:53:36.146Z,13.23
2022-09-16T20:56:04.635Z,13.27
2022-09-16T20:58:31.349Z,12.86
2022-09-16T21:01:06.645Z,13.31
2022-09-16T21:03:33.855Z,13.47
2022-09-16T21:06:07.777Z,13.15
2022-09-16T21:08:36.883Z,13.23
2022-09-16T21:11:07.103Z,13.34
2022-09-16T21:13:34.211Z,12.87
2022-09-16T21:16:00.856Z,13.20
2022-09-16T21:18:27.958Z,13.33
2022-09-16T21:21:04.627Z,13.06
2022-09-16T21:23:32.426Z,13.12
2022-09-16T21:26:16.169Z,13.06
2022-09-16T21:28:43.454Z,13.14
2022-09-16T21:31:13.332Z,13.16
2022-09-16T21:33:41.714Z,12.77
2022-09-16T21:36:10.403Z,12.87
2022-09-16T21:38:38.600Z,12.93
2022-09-16T21:41:13.665Z,12.99
2022-09-16T21:43:43.012Z,13.08
2022-09-16T21:46:11.748Z,12.83
2022-09-16T21:48:38.531Z,13.02
2022-09-16T21:51:12.974Z,12.61
2022-09-16T21:53:43.203Z,12.35
2022-09-16T21:56:15.419Z,12.20
2022-09-16T21:58:42.673Z,12.45
2022-09-16T22:01:11.368Z,12.34
2022-09-16T22:03:39.749Z,12.46
2022-09-16T22:06:07.673Z,12.72
2022-09-16T22:08:34.709Z,12.80
2022-09-16T22:11:07.264Z,12.93
2022-09-16T22:13:34.426Z,12.79
2022-09-16T22:16:01.913Z,12.63
2022-09-16T22:18:30.174Z,12.68
2022-09-16T22:21:02.336Z,12.88
2022-09-16T22:23:28.798Z,12.59
2022-09-16T22:25:55.270Z,12.74
2022-09-16T22:28:21.703Z,12.29
2022-09-16T22:30:48.289Z,11.85
2022-09-16T22:33:14.776Z,11.82
2022-09-16T22:35:41.300Z,12.05
2022-09-16T22:38:07.822Z,12.02
2022-09-16T22:40:34.494Z,12.11
2022-09-16T22:43:01.027Z,11.80
2022-09-16T22:45:27.481Z,11.67
2022-09-16T22:47:54.002Z,12.01
2022-09-16T22:50:20.483Z,11.92
2022-09-16T22:52:47.068Z,11.87
2022-09-16T22:55:13.614Z,12.04
2022-09-16T22:57:40.043Z,11.81
2022-09-16T23:00:07.055Z,12.13
2022-09-16T23:02:33.518Z,11.69
2022-09-16T23:05:00.180Z,11.46
2022-09-16T23:07:26.819Z,11.48
2022-09-16T23:09:53.354Z,11.49
2022-09-16T23:12:19.900Z,11.62
2022-09-16T23:14:46.395Z,11.62
2022-09-16T23:17:12.930Z,11.38
2022-09-16T23:19:39.393Z,11.10
2022-09-16T23:22:06.054Z,11.40
2022-09-16T23:24:32.545Z,11.99
2022-09-16T23:26:59.376Z,11.67
2022-09-16T23:29:25.831Z,11.43
2022-09-16T23:31:52.841Z,11.40
2022-09-16T23:34:21.397Z,11.03
2022-09-16T23:36:48.804Z,11.48
2022-09-16T23:39:16.224Z,11.50
2022-09-16T23:41:43.499Z,11.67
2022-09-16T23:44:13.036Z,11.59
2022-09-16T23:46:39.597Z,11.40
2022-09-16T23:49:06.194Z,11.01
2022-09-16T23:51:32.768Z,11.81
2022-09-16T23:53:59.641Z,11.56
2022-09-16T23:56:26.748Z,11.58
2022-09-16T23:58:53.956Z,11.48
